Latest Weather Observations for Katanning RS

IDW60801

Issued at 7:05 pm WST Monday 1 September 2014 (issued every 30 minutes, with the page automatically refreshed every 10 minutes)

About weather observations | Map of weather stations | Latest weather observations for WA | Other Formats
Station Details ID: 010916 Name: KATANNING Lat: -33.69 Lon: 117.61 Height: 320.0 m
Data from the previous 72 hours. | See also: Recent months at Katanning RS
Date/Time
WST
Temp
°C
App
Temp
°C
Dew
Point
Rel
Hum
%
Delta-T
°C
Wind Press
QNH
hPa
Press
MSL
hPa
Rain
since 9 am
mm
Dir
 
Spd
km/h
Gust
km/h
Spd
kts
Gust
kts
01/07:00pm 8.7 7.0 1.6 61 3.0 ENE 0 0 0 0 1022.5 1022.5 0.0
01/06:30pm 9.8 8.1 1.7 57 3.4 ENE 0 0 0 0 1022.6 1022.6 0.0
01/06:00pm 10.2 8.1 1.6 55 3.6 NE 2 4 1 2 1022.5 1022.5 0.0
01/05:30pm 11.5 8.6 1.7 51 4.2 NNE 6 9 3 5 1022.6 1022.6 0.0
01/05:00pm 12.7 9.7 2.0 48 4.7 N 7 11 4 6 1022.6 1022.6 0.0
01/04:30pm 12.5 8.8 2.1 49 4.6 NNE 11 15 6 8 1022.3 1022.3 0.0
01/04:00pm 13.8 9.6 1.5 43 5.4 N 13 17 7 9 1022.0 1022.1 0.0
01/03:30pm 13.7 9.9 1.7 44 5.3 NE 11 17 6 9 1021.9 1022.0 0.0
01/03:00pm 13.3 10.1 3.1 50 4.6 NE 9 20 5 11 1022.3 1022.3 0.0
01/02:30pm 14.1 11.0 3.8 50 4.8 N 9 20 5 11 1022.1 1022.2 0.0
01/02:00pm 13.4 9.5 3.5 51 4.5 NE 13 22 7 12 1022.8 1022.8 0.0
01/01:30pm 13.9 10.3 4.8 54 4.3 N 13 20 7 11 1022.9 1022.9 0.0
01/01:00pm 13.3 9.1 3.7 52 4.4 NE 15 20 8 11 1023.1 1023.1 0.0
01/12:30pm 13.3 9.6 4.7 56 4.0 NNE 13 19 7 10 1023.7 1023.7 0.0
01/12:00pm 13.2 10.2 5.9 61 3.5 NE 11 17 6 9 1024.0 1024.0 0.0
01/11:30am 11.9 8.1 3.9 58 3.6 NE 13 19 7 10 1024.6 1024.7 0.0
01/11:00am 11.8 8.4 5.9 67 2.8 NNE 13 19 7 10 1024.8 1024.9 0.0
01/10:30am 11.0 7.6 5.7 70 2.5 NNE 13 19 7 10 1024.9 1025.0 0.0
01/10:00am 10.7 7.4 6.5 75 2.0 NE 13 17 7 9 1025.1 1025.2 0.0
01/09:30am 9.8 6.7 5.4 74 2.0 NE 11 17 6 9 1025.0 1025.1 0.0
01/09:00am 8.7 6.6 6.0 83 1.2 ENE 6 9 3 5 1025.1 1025.2 0.4
01/08:30am 7.3 5.2 5.9 91 0.6 NE 6 7 3 4 1025.1 1025.2 0.4
01/08:00am 5.8 4.6 4.6 92 0.5 CALM 0 0 0 0 1025.1 1025.2 0.4
01/07:30am 3.3 1.6 2.0 91 0.5 CALM 0 0 0 0 1024.6 1024.8 0.2
01/07:00am 2.5 0.7 1.2 91 0.5 CALM 0 0 0 0 1024.3 1024.5 0.2
01/06:30am 3.7 2.1 2.4 91 0.5 CALM 0 0 0 0 1024.1 1024.3 0.2
01/06:00am 3.5 1.9 2.2 91 0.5 CALM 0 0 0 0 1023.8 1024.0 0.2
01/05:30am 3.0 1.3 1.8 92 0.5 CALM 0 0 0 0 1023.5 1023.7 0.2
01/05:00am 2.6 0.1 1.3 91 0.5 NNW 4 4 2 2 1023.4 1023.6 0.2
01/04:30am 2.4 -0.6 1.1 91 0.5 NNW 6 7 3 4 1023.2 1023.4 0.2
01/04:00am 4.0 2.4 2.7 91 0.5 CALM 0 0 0 0 1023.0 1023.2 0.2
01/03:30am 3.1 1.4 1.6 90 0.6 CALM 0 0 0 0 1023.0 1023.2 0.2
01/03:00am 3.6 1.9 2.0 89 0.6 CALM 0 0 0 0 1023.0 1023.2 0.2
01/02:30am 3.6 1.9 2.0 89 0.6 CALM 0 0 0 0 1022.9 1023.0 0.2
01/02:00am 3.0 1.2 1.2 88 0.7 CALM 0 0 0 0 1022.8 1022.9 0.2
01/01:30am 3.5 0.6 1.5 87 0.8 S 6 7 3 4 1022.7 1022.8 0.2
01/01:00am 4.3 1.5 2.3 87 0.8 S 6 7 3 4 1022.8 1022.9 0.2
01/12:30am 4.7 1.5 2.9 88 0.7 S 9 11 5 6 1022.7 1022.8 0.2
01/12:00am 4.7 1.9 2.9 88 0.7 S 7 9 4 5 1022.7 1022.8 0.2
 
Date/Time
WST
Temp
°C
App
Temp
°C
Dew
Point
Rel
Hum
%
Delta-T
°C
Wind Press
QNH
hPa
Press
MSL
hPa
Rain
since 9 am
mm
Dir
 
Spd
km/h
Gust
km/h
Spd
kts
Gust
kts
31/11:30pm 4.6 1.7 2.6 87 0.8 S 7 9 4 5 1022.7 1022.8 0.2
31/11:00pm 5.5 3.0 3.5 87 0.8 S 6 7 3 4 1022.9 1023.0 0.2
31/10:30pm 6.0 3.9 4.0 87 0.9 SSW 4 4 2 2 1023.2 1023.4 0.2
31/10:00pm 6.2 4.1 4.0 86 1.0 S 4 4 2 2 1023.1 1023.3 0.2
31/09:30pm 6.2 3.7 3.9 85 1.0 S 6 6 3 3 1022.7 1022.8 0.2
31/09:00pm 6.4 4.3 3.9 84 1.1 S 4 6 2 3 1022.5 1022.6 0.2
31/08:30pm 6.7 4.6 3.9 82 1.2 S 4 6 2 3 1022.3 1022.4 0.2
31/08:00pm 6.9 4.4 3.9 81 1.3 S 6 7 3 4 1022.0 1022.2 0.2
31/07:30pm 7.3 4.3 3.9 79 1.5 S 9 13 5 7 1021.8 1022.0 0.2
31/07:00pm 7.8 5.4 4.2 78 1.6 S 6 7 3 4 1021.3 1021.5 0.2
31/06:30pm 8.5 6.1 4.5 76 1.8 S 6 9 3 5 1021.0 1021.2 0.2
31/06:00pm 8.6 6.2 4.2 74 2.0 SSW 6 7 3 4 1021.0 1021.2 0.2
31/05:30pm 9.8 7.5 4.6 70 2.4 SSW 6 9 3 5 1020.8 1021.0 0.2
31/05:00pm 10.7 7.9 5.0 68 2.6 SSW 9 15 5 8 1020.3 1020.5 0.2
31/04:30pm 11.0 7.6 4.2 63 3.1 S 11 17 6 9 1019.8 1019.9 0.2
31/04:00pm 11.7 9.5 6.4 70 2.5 W 7 11 4 6 1019.5 1019.6 0.0
31/03:30pm 10.8 7.5 6.2 73 2.2 W 13 17 7 9 1019.5 1019.6 0.0
31/03:00pm 11.0 5.8 5.7 70 2.5 WSW 22 33 12 18 1019.3 1019.4 0.0
31/02:30pm 13.7 9.4 3.5 50 4.7 W 15 22 8 12 1018.4 1018.6 0.0
31/02:00pm 13.1 8.6 4.0 54 4.2 W 17 24 9 13 1018.3 1018.5 0.0
31/01:30pm 13.3 9.2 4.2 54 4.2 W 15 20 8 11 1018.2 1018.4 0.0
31/01:00pm 13.8 9.6 3.6 50 4.7 WSW 15 24 8 13 1018.3 1018.5 0.0
31/12:30pm 13.1 10.1 6.0 62 3.4 WSW 11 19 6 10 1018.7 1018.9 0.0
31/12:00pm 12.8 8.8 5.0 59 3.7 WSW 15 22 8 12 1019.2 1019.3 0.0
31/11:30am 12.6 9.0 5.1 60 3.5 SW 13 19 7 10 1019.4 1019.5 0.0
31/11:00am 12.8 8.9 5.2 60 3.6 WSW 15 20 8 11 1019.4 1019.5 0.0
31/10:30am 11.9 7.9 4.9 62 3.3 WSW 15 24 8 13 1019.5 1019.6 0.0
31/10:00am 11.9 8.5 5.8 66 2.9 SW 13 20 7 11 1019.6 1019.7 0.0
31/09:30am 10.9 8.8 6.8 76 2.0 WSW 7 13 4 7 1019.8 1019.9 0.0
31/09:00am 10.1 8.1 7.3 83 1.4 WSW 7 9 4 5 1019.8 1019.9 0.8
31/08:30am 9.0 6.8 6.4 84 1.2 WSW 7 13 4 7 1019.6 1019.7 0.8
31/08:00am 8.6 6.5 6.6 87 0.9 W 7 11 4 6 1019.4 1019.5 0.8
31/07:30am 8.1 6.5 6.4 89 0.8 WNW 4 6 2 3 1019.2 1019.3 0.8
31/07:00am 7.9 6.3 6.2 89 0.8 W 4 4 2 2 1018.6 1018.8 0.8
31/06:30am 7.7 5.6 6.0 89 0.8 SW 6 9 3 5 1018.4 1018.6 0.8
31/06:00am 8.1 5.9 6.2 88 0.9 SW 7 11 4 6 1018.3 1018.5 0.6
31/05:30am 8.3 5.7 6.3 87 0.9 SSW 9 11 5 6 1018.0 1018.2 0.2
31/05:00am 8.4 6.5 6.5 88 0.9 W 6 7 3 4 1017.7 1017.9 0.2
31/04:30am 8.5 6.6 6.8 89 0.8 W 6 7 3 4 1017.8 1018.0 0.2
31/04:00am 8.7 6.7 7.2 90 0.7 W 7 11 4 6 1017.8 1018.0 0.2
31/03:30am 8.3 6.8 6.6 89 0.8 NNW 4 4 2 2 1017.3 1017.4 0.2
31/03:00am 8.6 7.2 7.1 90 0.7 NNW 4 6 2 3 1017.3 1017.4 0.2
31/02:30am 8.7 6.9 7.2 90 0.7 W 6 6 3 3 1017.4 1017.5 0.2
31/02:00am 8.7 8.1 7.2 90 0.7 CALM 0 0 0 0 1017.1 1017.2 0.2
31/01:30am 8.3 7.5 6.6 89 0.8 CALM 0 0 0 0 1017.1 1017.2 0.2
31/01:00am 8.0 7.1 6.1 88 0.9 CALM 0 0 0 0 1016.9 1017.0 0.2
31/12:30am 8.4 7.6 6.5 88 0.9 CALM 0 0 0 0 1017.3 1017.4 0.2
31/12:00am 8.7 8.0 6.8 88 0.9 CALM 0 0 0 0 1017.4 1017.5 0.2
 
Date/Time
WST
Temp
°C
App
Temp
°C
Dew
Point
Rel
Hum
%
Delta-T
°C
Wind Press
QNH
hPa
Press
MSL
hPa
Rain
since 9 am
mm
Dir
 
Spd
km/h
Gust
km/h
Spd
kts
Gust
kts
30/11:30pm 8.8 7.3 6.9 88 0.9 S 4 6 2 3 1017.3 1017.4 0.2
30/11:00pm 8.7 6.9 7.0 89 0.8 SSW 6 6 3 3 1017.8 1018.0 0.2
30/10:30pm 8.3 6.1 6.4 88 0.9 SSW 7 9 4 5 1018.1 1018.3 0.2
30/10:00pm 8.6 7.1 6.6 87 0.9 SSW 4 6 2 3 1017.6 1017.7 0.2
30/09:30pm 9.2 7.4 7.0 86 1.1 SSW 6 7 3 4 1017.6 1017.7 0.2
30/09:00pm 9.5 7.5 6.9 84 1.2 SSW 7 11 4 6 1017.6 1017.7 0.2
30/08:30pm 10.0 8.1 7.4 84 1.3 SSW 7 9 4 5 1017.8 1018.0 0.2
30/08:00pm 10.0 8.2 7.3 83 1.3 SW 6 9 3 5 1017.6 1017.7 0.2
30/07:30pm 10.1 8.1 7.2 82 1.4 SSW 7 9 4 5 1017.6 1017.7 0.2
30/07:00pm 10.5 8.5 7.2 80 1.6 SSW 7 13 4 7 1016.9 1017.0 0.2
30/06:30pm 10.6 8.7 6.7 77 1.9 SSW 6 7 3 4 1016.7 1016.8 0.2
30/06:00pm 11.5 9.1 7.0 74 2.2 SW 9 13 5 7 1016.7 1016.8 0.2
30/05:30pm 12.1 10.2 7.6 74 2.2 WSW 7 11 4 6 1016.5 1016.6 0.2
30/05:00pm 12.4 10.2 7.9 74 2.2 SW 9 13 5 7 1016.2 1016.3 0.2
30/04:30pm 12.8 10.2 7.9 72 2.5 SW 11 17 6 9 1015.7 1015.8 0.2
30/04:00pm 14.0 11.7 9.0 72 2.6 SW 11 17 6 9 1015.2 1015.4 0.2
30/03:30pm 13.7 11.2 8.1 69 2.8 WSW 11 17 6 9 1015.2 1015.4 0.2
30/03:00pm 13.9 11.4 8.1 68 2.9 WSW 11 17 6 9 1015.0 1015.2 0.2
30/02:30pm 14.7 11.9 8.4 66 3.2 W 13 19 7 10 1014.9 1015.0 0.2
30/02:00pm 13.9 11.1 8.7 71 2.7 SW 13 20 7 11 1014.7 1014.8 0.2
30/01:30pm 14.6 12.6 8.8 68 3.0 WSW 9 19 5 10 1014.7 1014.8 0.2
30/01:00pm 14.4 11.9 9.6 73 2.5 W 13 19 7 10 1014.9 1015.0 0.2
30/12:30pm 14.1 12.4 9.7 75 2.3 SW 9 15 5 8 1015.1 1015.3 0.2
30/12:00pm 13.7 11.9 10.7 82 1.6 S 11 19 6 10 1015.3 1015.5 0.2
30/11:30am 12.5 9.2 9.5 82 1.5 SW 17 28 9 15 1015.8 1015.9 0.2
30/11:00am 12.9 10.8 9.9 82 1.6 SSW 11 19 6 10 1015.8 1015.9 0.2
30/10:30am 12.9 11.0 10.4 85 1.3 SW 11 17 6 9 1015.7 1015.8 0.2
30/10:00am 12.3 8.9 9.3 82 1.5 SW 17 24 9 13 1015.7 1015.8 0.2
30/09:30am 12.9 11.1 11.0 88 1.0 WSW 11 15 6 8 1015.3 1015.5 0.2
30/09:00am 12.8 10.5 10.5 86 1.2 W 13 19 7 10 1015.1 1015.3 35.2
30/08:30am 12.7 11.4 11.1 90 0.9 W 9 13 5 7 1015.1 1015.3 35.2
30/08:00am 12.5 11.5 11.1 91 0.7 WNW 7 11 4 6 1014.6 1014.7 35.2
30/07:30am 12.3 11.5 10.9 91 0.7 WNW 6 7 3 4 1013.9 1014.0 35.2
30/07:00am 12.1 11.2 10.7 91 0.7 WNW 6 7 3 4 1013.7 1013.8 35.2
30/06:30am 12.0 12.2 10.6 91 0.7 CALM 0 0 0 0 1013.4 1013.5 35.2
30/06:00am 12.2 11.7 10.8 91 0.7 WSW 4 6 2 3 1013.2 1013.3 35.2
30/05:30am 12.4 11.6 11.0 91 0.7 WSW 6 11 3 6 1012.7 1012.8 35.2
30/05:00am 12.4 11.4 11.0 91 0.7 W 7 11 4 6 1012.7 1012.8 35.2
30/04:30am 12.6 11.7 11.2 91 0.7 WNW 7 9 4 5 1012.5 1012.6 34.8
30/04:00am 12.6 11.7 11.2 91 0.7 W 7 11 4 6 1012.6 1012.7 34.8
30/03:30am 12.7 12.0 11.3 91 0.8 NW 6 11 3 6 1012.1 1012.2 34.8
30/03:00am 12.8 11.9 11.4 91 0.8 W 7 11 4 6 1012.1 1012.2 34.8
30/02:30am 12.8 11.5 11.4 91 0.8 WNW 9 13 5 7 1012.4 1012.5 34.4
30/02:00am 12.9 10.8 11.3 90 0.9 NW 13 19 7 10 1012.2 1012.3 34.0
30/01:30am 12.9 10.8 11.3 90 0.9 NW 13 19 7 10 1012.2 1012.3 33.4
30/01:00am 12.9 10.5 11.3 90 0.9 NNW 15 19 8 10 1011.9 1012.0 33.2
30/12:30am 12.9 10.5 11.5 91 0.8 NNW 15 22 8 12 1011.9 1012.0 33.2
30/12:00am 12.9 10.5 11.3 90 0.9 NNW 15 22 8 12 1011.9 1012.0 33.0
 
Date/Time
WST
Temp
°C
App
Temp
°C
Dew
Point
Rel
Hum
%
Delta-T
°C
Wind Press
QNH
hPa
Press
MSL
hPa
Rain
since 9 am
mm
Dir
 
Spd
km/h
Gust
km/h
Spd
kts
Gust
kts
29/11:30pm 12.8 11.1 11.2 90 0.9 N 11 15 6 8 1012.4 1012.5 32.6
29/11:00pm 13.1 10.7 11.5 90 0.9 NNW 15 19 8 10 1012.5 1012.6 32.6
29/10:30pm 13.3 10.2 11.7 90 0.9 NNW 19 26 10 14 1013.1 1013.2 32.2
29/10:00pm 13.2 10.9 11.6 90 0.9 NW 15 20 8 11 1013.2 1013.3 32.0
29/09:30pm 13.4 11.6 12.0 91 0.8 NW 13 19 7 10 1013.2 1013.3 31.6
29/09:00pm 13.4 11.9 12.0 91 0.8 NW 11 17 6 9 1013.1 1013.2 31.4
29/08:30pm 13.3 12.6 11.9 91 0.8 NW 7 11 4 6 1013.2 1013.3 25.0
29/08:00pm 13.3 12.6 11.9 91 0.8 NW 7 11 4 6 1013.0 1013.1 25.0
29/07:30pm 13.3 12.6 11.9 91 0.8 WNW 7 13 4 7 1012.9 1013.0 25.0

Other Formats:

Comma delimited format used in spreadsheet applications
http://www.bom.gov.au/fwo/IDW60801/IDW60801.94641.axf

JavaScript Object Notation format (JSON) in row-major order
http://www.bom.gov.au/fwo/IDW60801/IDW60801.94641.json